Time;durP1;ratioP1;P1;durP2;ratioP2;P2;SDS_P1;SDS_P2;PMS_P1;PMS_P2;Temp;Humidity;BMP_temperature;BMP_pressure;BME280_temperature;BME280_humidity;BME280_pressure;Samples;Min_cycle;Max_cycle;Signal;HPM_P1;HPM_P2
2021/08/24 00:02:08;;;;;;;1.52;1.42;;;24.70;47.30;;;;;;5049832;28;20281;-54
2021/08/24 00:04:34;;;;;;;1.63;1.40;;;24.70;47.30;;;;;;5034032;28;20201;-55
2021/08/24 00:07:00;;;;;;;1.45;1.35;;;24.70;47.30;;;;;;5050920;28;20216;-51
2021/08/24 00:09:27;;;;;;;1.50;1.40;;;24.70;47.30;;;;;;5049203;28;21562;-53
2021/08/24 00:11:53;;;;;;;1.58;1.42;;;24.70;47.30;;;;;;5049324;28;20194;-55
2021/08/24 00:14:20;;;;;;;1.30;1.20;;;24.70;47.30;;;;;;5042756;28;20205;-55
2021/08/24 00:16:47;;;;;;;1.50;1.40;;;24.70;47.30;;;;;;5030418;28;20309;-54
2021/08/24 00:19:13;;;;;;;1.40;1.30;;;24.70;47.40;;;;;;5048942;28;20198;-55
2021/08/24 00:21:40;;;;;;;1.55;1.45;;;24.70;47.40;;;;;;5036755;28;20285;-55
2021/08/24 00:24:06;;;;;;;1.15;1.13;;;24.70;47.40;;;;;;5049843;28;20335;-55
2021/08/24 00:26:33;;;;;;;1.70;1.60;;;24.70;47.30;;;;;;5048723;28;20206;-55
2021/08/24 00:28:59;;;;;;;1.35;1.25;;;24.70;47.30;;;;;;5044249;28;20211;-55
2021/08/24 00:31:26;;;;;;;1.50;1.40;;;24.70;47.30;;;;;;5045880;28;20201;-55
2021/08/24 00:33:52;;;;;;;1.50;1.40;;;24.70;47.30;;;;;;5049878;28;20313;-53
2021/08/24 00:36:19;;;;;;;1.80;1.48;;;24.70;47.30;;;;;;5036884;28;20234;-51
2021/08/24 00:38:45;;;;;;;1.80;1.40;;;24.70;47.30;;;;;;5040905;28;20237;-50
2021/08/24 00:41:12;;;;;;;1.67;1.50;;;24.70;47.30;;;;;;5037498;28;20199;-50
2021/08/24 00:43:38;;;;;;;3.17;1.50;;;24.70;47.30;;;;;;5049623;28;20221;-50
2021/08/24 00:46:05;;;;;;;1.40;1.30;;;24.70;47.30;;;;;;5037991;28;20207;-52
2021/08/24 00:48:31;;;;;;;1.30;1.20;;;24.70;47.50;;;;;;5041147;28;20292;-53
2021/08/24 00:50:58;;;;;;;1.40;1.30;;;24.70;47.40;;;;;;5034981;28;20212;-50
2021/08/24 00:53:24;;;;;;;1.42;1.30;;;24.70;47.40;;;;;;5041935;28;20222;-52
2021/08/24 00:55:51;;;;;;;1.50;1.40;;;24.70;47.40;;;;;;5046501;28;20234;-51
2021/08/24 00:58:18;;;;;;;2.30;1.33;;;24.70;47.40;;;;;;5034201;28;20298;-49
2021/08/24 01:00:44;;;;;;;1.50;1.40;;;24.70;47.40;;;;;;5039533;28;20670;-49
2021/08/24 01:03:10;;;;;;;1.27;1.10;;;24.70;47.40;;;;;;5051436;28;20229;-50
2021/08/24 01:05:37;;;;;;;1.23;1.17;;;24.70;47.40;;;;;;5044267;28;20213;-51
2021/08/24 01:08:03;;;;;;;1.55;1.45;;;24.70;47.50;;;;;;5038058;28;20199;-53
2021/08/24 01:10:30;;;;;;;1.30;1.20;;;24.70;47.50;;;;;;5042230;28;20201;-51
2021/08/24 01:12:56;;;;;;;1.50;1.40;;;24.70;47.40;;;;;;5051394;28;20210;-50
2021/08/24 01:15:23;;;;;;;2.25;1.42;;;24.70;47.50;;;;;;5051864;28;20226;-50
2021/08/24 01:17:49;;;;;;;1.48;1.10;;;24.70;47.40;;;;;;5053516;28;20202;-52
2021/08/24 01:20:16;;;;;;;1.52;1.42;;;24.70;47.50;;;;;;5045154;28;20661;-51
2021/08/24 01:22:51;;;;;;;1.42;1.33;;;24.70;47.50;;;;;;5035549;28;20309;-53
2021/08/24 01:25:17;;;;;;;1.92;1.30;;;24.70;47.50;;;;;;5038818;28;20284;-50
2021/08/24 01:27:44;;;;;;;1.85;1.50;;;24.70;47.40;;;;;;5034694;28;20206;-49
2021/08/24 01:30:10;;;;;;;1.75;1.42;;;24.70;47.50;;;;;;5036539;28;20273;-49
2021/08/24 01:32:36;;;;;;;1.60;1.50;;;24.70;47.50;;;;;;5038155;28;20220;-49
2021/08/24 01:35:03;;;;;;;1.40;1.30;;;24.70;47.50;;;;;;5041297;28;20213;-51
2021/08/24 01:37:29;;;;;;;1.27;1.20;;;24.70;47.50;;;;;;5046380;28;20216;-50
2021/08/24 01:39:56;;;;;;;1.23;1.13;;;24.70;47.50;;;;;;5046222;28;20205;-50
2021/08/24 01:42:22;;;;;;;1.38;1.13;;;24.70;47.50;;;;;;5048829;28;20243;-51
2021/08/24 01:44:49;;;;;;;1.40;1.30;;;24.70;47.50;;;;;;5041182;28;20206;-49
2021/08/24 01:47:16;;;;;;;1.70;1.30;;;24.70;47.50;;;;;;5051681;28;20198;-49
2021/08/24 01:49:42;;;;;;;1.42;1.33;;;24.70;47.60;;;;;;5039391;28;20580;-49
2021/08/24 01:52:09;;;;;;;1.65;1.15;;;24.70;47.50;;;;;;5040320;28;20584;-52
2021/08/24 01:54:35;;;;;;;1.60;1.50;;;24.70;47.50;;;;;;5052193;28;20202;-51
2021/08/24 01:57:02;;;;;;;1.42;1.30;;;24.70;47.60;;;;;;5044549;28;20225;-52
2021/08/24 01:59:28;;;;;;;1.45;1.35;;;24.70;47.50;;;;;;5050341;28;20202;-53
2021/08/24 02:01:55;;;;;;;1.20;1.10;;;24.70;47.60;;;;;;5040043;28;20222;-51
2021/08/24 02:04:21;;;;;;;2.10;1.30;;;24.70;47.60;;;;;;5051591;28;20557;-49
2021/08/24 02:06:48;;;;;;;1.15;1.10;;;24.70;47.50;;;;;;5052310;28;20579;-51
2021/08/24 02:09:15;;;;;;;3.03;1.50;;;24.70;47.60;;;;;;5050240;28;20285;-50
2021/08/24 02:11:41;;;;;;;1.38;1.25;;;24.70;47.60;;;;;;5045190;28;20620;-49
2021/08/24 02:14:08;;;;;;;1.20;1.20;;;24.70;47.50;;;;;;5051765;28;20234;-50
2021/08/24 02:16:34;;;;;;;2.08;1.95;;;24.70;47.60;;;;;;5037894;28;20253;-50
2021/08/24 02:19:00;;;;;;;1.38;1.23;;;24.70;47.60;;;;;;5038232;28;20262;-53
2021/08/24 02:21:27;;;;;;;1.42;1.30;;;24.70;47.60;;;;;;5034715;28;20204;-52
2021/08/24 02:23:53;;;;;;;4.30;1.58;;;24.70;47.60;;;;;;5046259;28;20198;-51
2021/08/24 02:26:20;;;;;;;2.13;1.60;;;24.70;47.60;;;;;;5031760;28;20202;-49
2021/08/24 02:28:46;;;;;;;1.88;1.27;;;24.70;47.60;;;;;;5039833;28;20198;-50
2021/08/24 02:31:13;;;;;;;1.48;1.38;;;24.70;47.60;;;;;;5050735;28;20204;-51
2021/08/24 02:33:39;;;;;;;2.33;1.40;;;24.70;48.20;;;;;;5033067;28;20219;-50
2021/08/24 02:36:06;;;;;;;1.40;1.30;;;24.70;47.60;;;;;;5049798;28;20232;-50
2021/08/24 02:38:32;;;;;;;1.30;1.15;;;24.70;47.50;;;;;;5049055;28;20255;-52
2021/08/24 02:40:59;;;;;;;1.60;1.38;;;24.70;47.60;;;;;;5051171;28;20190;-49
2021/08/24 02:43:25;;;;;;;1.50;1.40;;;24.70;47.70;;;;;;5035986;28;20219;-51
2021/08/24 02:45:52;;;;;;;1.48;1.30;;;24.70;47.70;;;;;;5047191;28;20193;-49
2021/08/24 02:48:18;;;;;;;1.45;1.35;;;24.70;47.70;;;;;;5035744;28;20206;-51
2021/08/24 02:50:45;;;;;;;1.50;1.40;;;24.70;47.70;;;;;;5046765;28;20221;-52
2021/08/24 02:53:11;;;;;;;1.42;1.23;;;24.70;47.80;;;;;;5046061;28;20583;-49
2021/08/24 02:55:38;;;;;;;1.30;1.20;;;24.70;47.80;;;;;;5048119;28;20225;-52
2021/08/24 02:58:04;;;;;;;1.40;1.30;;;24.70;47.80;;;;;;5044846;28;20208;-52
2021/08/24 03:00:31;;;;;;;1.58;1.08;;;24.70;47.70;;;;;;5050334;28;20202;-51
2021/08/24 03:02:57;;;;;;;1.45;1.35;;;24.70;47.70;;;;;;5041537;28;20222;-50
2021/08/24 03:05:24;;;;;;;1.92;1.30;;;24.70;47.70;;;;;;5044447;28;20738;-50
2021/08/24 03:07:50;;;;;;;1.30;1.20;;;24.70;47.70;;;;;;5031924;28;20685;-49
2021/08/24 03:10:17;;;;;;;2.53;1.30;;;24.70;47.70;;;;;;5045416;28;20567;-49
2021/08/24 03:12:43;;;;;;;2.00;1.10;;;24.70;47.70;;;;;;5043942;28;20561;-50
2021/08/24 03:15:09;;;;;;;1.70;1.27;;;24.70;47.70;;;;;;5032091;28;20550;-51
2021/08/24 03:17:36;;;;;;;1.17;1.10;;;24.70;47.80;;;;;;5035936;28;20255;-49
2021/08/24 03:20:02;;;;;;;1.20;1.10;;;24.70;47.80;;;;;;5050108;28;20205;-55
2021/08/24 03:22:29;;;;;;;1.35;1.05;;;24.70;47.80;;;;;;5047537;28;20214;-54
2021/08/24 03:24:56;;;;;;;1.70;1.40;;;24.70;47.80;;;;;;5031427;28;20742;-53
2021/08/24 03:27:22;;;;;;;1.58;1.48;;;24.70;47.80;;;;;;5045153;28;20655;-55
2021/08/24 03:29:48;;;;;;;2.15;1.23;;;24.70;47.80;;;;;;5049354;28;20363;-50
2021/08/24 03:32:15;;;;;;;1.95;1.67;;;24.70;47.80;;;;;;5042233;28;20222;-52
2021/08/24 03:34:41;;;;;;;1.45;1.35;;;24.70;47.80;;;;;;5048912;28;20248;-55
2021/08/24 03:37:08;;;;;;;1.50;1.40;;;24.70;47.80;;;;;;5048891;28;20573;-53
2021/08/24 03:39:35;;;;;;;1.05;1.00;;;24.70;47.80;;;;;;5041411;28;20568;-54
2021/08/24 03:42:01;;;;;;;1.58;1.23;;;24.70;47.80;;;;;;5040575;28;20298;-49
2021/08/24 03:44:27;;;;;;;1.30;1.20;;;24.70;47.90;;;;;;5048792;28;20205;-53
2021/08/24 03:46:54;;;;;;;1.30;1.20;;;24.70;47.80;;;;;;5046271;28;20206;-49
2021/08/24 03:49:20;;;;;;;1.17;1.17;;;24.70;47.90;;;;;;5049780;28;20645;-51
2021/08/24 03:51:47;;;;;;;1.80;1.30;;;24.70;47.90;;;;;;5048950;28;20333;-50
2021/08/24 03:54:13;;;;;;;1.48;1.33;;;24.70;47.90;;;;;;5049351;28;20202;-49
2021/08/24 03:56:40;;;;;;;1.30;1.20;;;24.70;47.90;;;;;;5041941;28;20229;-50
2021/08/24 03:59:06;;;;;;;1.45;1.35;;;24.70;47.90;;;;;;5031182;28;20202;-48
2021/08/24 04:01:32;;;;;;;2.05;1.30;;;24.70;47.90;;;;;;5033943;28;20240;-49
2021/08/24 04:03:59;;;;;;;1.67;1.20;;;24.70;48.00;;;;;;5049107;28;20205;-49
2021/08/24 04:06:26;;;;;;;1.23;1.02;;;24.70;47.90;;;;;;5043350;28;20210;-53
2021/08/24 04:08:52;;;;;;;1.98;1.38;;;24.70;47.90;;;;;;5049066;28;20636;-50
2021/08/24 04:11:19;;;;;;;1.15;1.05;;;24.70;47.90;;;;;;5041930;28;20650;-51
2021/08/24 04:13:45;;;;;;;1.23;1.13;;;24.70;47.90;;;;;;5046466;28;20204;-50
2021/08/24 04:16:12;;;;;;;1.45;1.25;;;24.70;47.90;;;;;;5035054;28;20312;-54
2021/08/24 04:18:38;;;;;;;2.55;1.42;;;24.70;47.90;;;;;;5044459;28;20212;-50
2021/08/24 04:21:05;;;;;;;1.17;1.08;;;24.70;47.90;;;;;;5039298;28;20203;-50
2021/08/24 04:23:31;;;;;;;1.30;1.20;;;24.70;47.90;;;;;;5037743;28;20203;-52
2021/08/24 04:25:59;;;;;;;2.10;1.25;;;24.70;47.90;;;;;;5037928;28;20274;-50
2021/08/24 04:28:25;;;;;;;1.30;1.20;;;24.70;47.90;;;;;;5053636;28;20228;-52
2021/08/24 04:30:52;;;;;;;1.15;1.00;;;24.70;47.90;;;;;;5040815;28;20206;-49
2021/08/24 04:33:22;;;;;;;1.40;1.27;;;24.70;48.00;;;;;;5044093;28;20256;-51
2021/08/24 04:35:48;;;;;;;1.38;1.25;;;24.70;48.00;;;;;;5054550;28;20221;-50
2021/08/24 04:38:15;;;;;;;1.48;1.20;;;24.70;47.90;;;;;;5052081;28;20297;-51
2021/08/24 04:40:41;;;;;;;1.70;1.17;;;24.70;47.90;;;;;;5053050;28;20198;-50
2021/08/24 04:43:07;;;;;;;1.80;1.25;;;24.70;47.90;;;;;;5045336;28;20224;-52
2021/08/24 04:45:34;;;;;;;1.30;1.20;;;24.70;47.90;;;;;;5052640;28;20202;-51
2021/08/24 04:48:00;;;;;;;1.38;1.17;;;24.70;47.90;;;;;;5053979;28;20202;-49
2021/08/24 04:50:27;;;;;;;1.30;1.20;;;24.70;47.90;;;;;;5037321;28;20197;-51
2021/08/24 04:52:53;;;;;;;1.52;1.20;;;24.70;47.90;;;;;;5055443;28;20236;-51
2021/08/24 04:55:20;;;;;;;1.33;1.20;;;24.70;47.90;;;;;;5034816;28;20195;-51
2021/08/24 04:57:46;;;;;;;1.30;1.20;;;24.70;47.90;;;;;;5034403;28;20230;-54
2021/08/24 05:00:12;;;;;;;1.33;1.20;;;24.70;47.90;;;;;;5036667;28;20203;-50
2021/08/24 05:02:39;;;;;;;1.35;1.25;;;24.70;47.90;;;;;;5045226;28;20225;-53
2021/08/24 05:05:05;;;;;;;1.33;1.10;;;24.70;47.90;;;;;;5052958;28;20304;-53
2021/08/24 05:07:32;;;;;;;2.17;1.40;;;24.70;47.90;;;;;;5041598;28;20213;-53
2021/08/24 05:09:58;;;;;;;1.00;1.00;;;24.70;48.00;;;;;;5033425;28;20209;-54
2021/08/24 05:12:25;;;;;;;1.20;1.10;;;24.70;47.90;;;;;;5034556;28;20228;-53
2021/08/24 05:14:51;;;;;;;1.40;1.10;;;24.70;47.90;;;;;;5044015;28;20214;-54
2021/08/24 05:17:17;;;;;;;1.20;1.10;;;24.70;47.90;;;;;;5053102;28;20226;-54
2021/08/24 05:19:44;;;;;;;1.20;1.10;;;24.70;47.60;;;;;;5052559;28;20201;-54
2021/08/24 05:22:10;;;;;;;1.30;1.20;;;24.70;47.90;;;;;;5048320;28;20214;-55
2021/08/24 05:24:37;;;;;;;1.25;1.15;;;24.70;48.20;;;;;;5034725;28;20293;-53
2021/08/24 05:27:04;;;;;;;1.45;1.05;;;24.70;48.30;;;;;;5034031;28;20306;-55
2021/08/24 05:29:30;;;;;;;5.13;1.33;;;24.70;48.30;;;;;;5035189;28;20194;-50
2021/08/24 05:31:56;;;;;;;3.97;1.20;;;24.70;48.30;;;;;;5051746;28;20213;-54
2021/08/24 05:34:23;;;;;;;1.42;1.27;;;24.70;48.30;;;;;;5051908;28;20297;-54
2021/08/24 05:36:49;;;;;;;1.67;1.35;;;24.70;48.30;;;;;;5053169;28;20234;-55
2021/08/24 05:39:16;;;;;;;1.30;1.20;;;24.70;48.30;;;;;;5048445;28;20214;-50
2021/08/24 05:41:42;;;;;;;2.13;1.65;;;24.70;48.30;;;;;;5049529;28;20214;-51
2021/08/24 05:44:09;;;;;;;4.35;2.10;;;24.70;48.30;;;;;;5051654;28;20285;-47
2021/08/24 05:46:35;;;;;;;2.55;1.70;;;24.70;48.30;;;;;;5047612;28;20235;-49
2021/08/24 05:49:02;;;;;;;3.72;1.55;;;24.70;48.30;;;;;;5048222;28;20623;-53
2021/08/24 05:51:28;;;;;;;1.98;1.48;;;24.70;48.30;;;;;;5033560;28;20591;-55
2021/08/24 05:53:54;;;;;;;4.82;2.22;;;24.70;48.30;;;;;;5040652;28;20553;-50
2021/08/24 05:56:21;;;;;;;4.60;3.17;;;24.50;43.60;;;;;;5041509;28;20233;-52
2021/08/24 05:58:47;;;;;;;2.88;2.65;;;22.00;43.10;;;;;;5049005;28;20198;-50
2021/08/24 06:01:14;;;;;;;4.82;3.10;;;21.20;44.20;;;;;;5050329;28;20226;-46
2021/08/24 06:03:40;;;;;;;6.72;2.58;;;20.50;46.20;;;;;;5042962;28;20197;-48
2021/08/24 06:06:07;;;;;;;6.40;2.95;;;21.70;45.60;;;;;;5052393;28;20220;-49
2021/08/24 06:08:33;;;;;;;2.50;2.00;;;22.50;44.40;;;;;;5042132;28;20228;-46
2021/08/24 06:10:59;;;;;;;2.30;1.90;;;23.00;44.20;;;;;;5051493;28;20292;-47
2021/08/24 06:13:26;;;;;;;2.38;2.10;;;23.30;44.30;;;;;;5038589;28;20208;-50
2021/08/24 06:15:53;;;;;;;6.53;3.05;;;23.50;44.30;;;;;;5034659;28;20207;-51
2021/08/24 06:18:19;;;;;;;4.13;2.10;;;23.70;44.40;;;;;;5033853;28;20234;-49
2021/08/24 06:20:46;;;;;;;2.22;2.03;;;23.80;44.30;;;;;;5032209;28;20208;-50
2021/08/24 06:23:12;;;;;;;2.25;1.98;;;23.90;44.40;;;;;;5045162;28;20229;-53
2021/08/24 06:25:39;;;;;;;2.85;2.10;;;23.90;44.30;;;;;;5047890;28;20206;-47
2021/08/24 06:28:05;;;;;;;2.75;2.40;;;24.00;44.40;;;;;;5043226;28;20201;-53
2021/08/24 06:30:32;;;;;;;2.95;2.20;;;24.00;44.20;;;;;;5047998;28;20221;-51
2021/08/24 06:32:58;;;;;;;2.92;2.42;;;24.00;43.80;;;;;;5050175;28;20230;-51
2021/08/24 06:35:25;;;;;;;4.03;2.20;;;23.90;43.60;;;;;;5049408;28;20279;-53
2021/08/24 06:37:51;;;;;;;2.58;2.35;;;23.90;43.40;;;;;;5050546;28;20259;-49
2021/08/24 06:40:18;;;;;;;3.22;2.28;;;23.90;43.70;;;;;;5050428;28;20194;-49
2021/08/24 06:42:44;;;;;;;3.33;1.90;;;24.00;44.00;;;;;;5046751;28;20226;-48
2021/08/24 06:45:10;;;;;;;3.58;2.03;;;24.00;43.70;;;;;;5046751;28;20197;-51
2021/08/24 06:47:37;;;;;;;2.88;2.05;;;24.00;43.90;;;;;;5050765;28;20212;-51
2021/08/24 06:50:03;;;;;;;2.50;2.30;;;24.00;43.60;;;;;;5033160;28;20194;-54
2021/08/24 06:52:30;;;;;;;2.90;2.17;;;24.10;43.60;;;;;;5037363;28;20295;-54
2021/08/24 06:54:56;;;;;;;2.53;2.20;;;24.10;43.80;;;;;;5049530;28;20202;-51
2021/08/24 06:57:23;;;;;;;2.92;2.20;;;24.10;43.80;;;;;;5032086;28;20236;-51
2021/08/24 06:59:49;;;;;;;2.40;1.90;;;24.10;43.60;;;;;;5048421;28;20200;-57
2021/08/24 07:02:15;;;;;;;5.07;2.80;;;24.10;43.80;;;;;;5050185;28;20218;-51
2021/08/24 07:04:42;;;;;;;4.55;2.63;;;24.00;42.90;;;;;;5045932;28;20205;-50
2021/08/24 07:07:09;;;;;;;4.93;2.47;;;24.00;42.90;;;;;;5050948;28;20218;-48
2021/08/24 07:09:35;;;;;;;2.22;2.03;;;23.90;42.50;;;;;;5039099;28;20226;-49
2021/08/24 07:12:01;;;;;;;4.95;2.40;;;24.00;42.60;;;;;;5037267;28;20226;-47
2021/08/24 07:14:28;;;;;;;2.20;2.00;;;24.00;42.80;;;;;;5050220;28;20204;-53
2021/08/24 07:16:54;;;;;;;4.03;2.30;;;24.00;42.90;;;;;;5050308;28;20239;-52
2021/08/24 07:19:21;;;;;;;3.35;2.08;;;24.10;43.00;;;;;;5046930;28;21519;-49
2021/08/24 07:21:47;;;;;;;2.45;2.22;;;24.10;43.00;;;;;;5047580;28;20228;-51
2021/08/24 07:24:14;;;;;;;4.63;1.80;;;24.20;43.10;;;;;;5050771;28;20729;-47
2021/08/24 07:26:40;;;;;;;2.67;1.92;;;24.10;43.00;;;;;;5049660;28;20558;-50
2021/08/24 07:29:06;;;;;;;1.70;1.60;;;24.20;43.10;;;;;;5050894;28;20373;-49
2021/08/24 07:31:37;;;;;;;1.88;1.73;;;24.20;43.10;;;;;;5042080;28;20218;-49
2021/08/24 07:34:03;;;;;;;3.38;2.00;;;24.20;43.10;;;;;;5036098;28;20284;-54
2021/08/24 07:36:30;;;;;;;3.72;2.13;;;24.20;43.10;;;;;;5047559;28;20202;-50
2021/08/24 07:38:56;;;;;;;2.42;2.15;;;24.20;43.10;;;;;;5051135;28;20312;-50
2021/08/24 07:41:23;;;;;;;2.60;2.00;;;24.20;43.10;;;;;;5037015;28;20233;-49
2021/08/24 07:43:49;;;;;;;2.70;1.95;;;24.20;43.10;;;;;;5036332;28;20220;-49
2021/08/24 07:46:15;;;;;;;2.13;1.92;;;24.20;43.10;;;;;;5050060;28;20202;-49
2021/08/24 07:48:42;;;;;;;3.78;1.85;;;24.20;43.10;;;;;;5044371;28;20198;-53
2021/08/24 07:51:08;;;;;;;3.63;2.05;;;24.20;43.10;;;;;;5046302;28;20253;-50
2021/08/24 07:53:35;;;;;;;3.65;1.85;;;24.20;43.20;;;;;;5038292;28;20204;-48
2021/08/24 07:56:04;;;;;;;3.20;1.73;;;24.20;43.10;;;;;;5040398;28;20246;-50
2021/08/24 07:58:30;;;;;;;5.22;2.10;;;24.20;43.10;;;;;;5031203;28;20601;-47
2021/08/24 08:00:57;;;;;;;5.75;2.67;;;24.30;43.80;;;;;;5037680;28;20611;-54
2021/08/24 08:03:23;;;;;;;5.72;2.88;;;24.20;44.40;;;;;;5048213;28;20575;-49
2021/08/24 08:05:50;;;;;;;3.80;2.70;;;24.30;45.50;;;;;;5049603;28;20581;-48
2021/08/24 08:08:16;;;;;;;5.78;2.83;;;24.20;44.50;;;;;;5049820;28;20534;-45
2021/08/24 08:10:43;;;;;;;4.18;2.42;;;24.10;43.60;;;;;;5049273;28;20351;-47
2021/08/24 08:13:09;;;;;;;2.30;2.10;;;24.00;43.00;;;;;;5042960;28;20201;-49
2021/08/24 08:15:36;;;;;;;2.42;2.20;;;23.90;42.90;;;;;;5049226;28;20577;-54
2021/08/24 08:18:02;;;;;;;4.43;2.55;;;23.80;42.30;;;;;;5045583;28;20560;-48
2021/08/24 08:20:29;;;;;;;3.08;2.30;;;23.80;42.10;;;;;;5039767;28;20277;-50
2021/08/24 08:22:55;;;;;;;3.13;2.25;;;23.90;42.60;;;;;;5035444;28;20229;-55
2021/08/24 08:25:22;;;;;;;3.55;2.45;;;23.90;42.10;;;;;;5034992;28;20227;-50
2021/08/24 08:27:48;;;;;;;3.17;2.25;;;24.00;42.90;;;;;;5040428;28;20212;-53
2021/08/24 08:30:14;;;;;;;2.45;2.17;;;24.10;43.10;;;;;;5043469;28;20209;-49
2021/08/24 08:32:42;;;;;;;2.20;2.00;;;24.10;43.50;;;;;;5033552;28;20278;-48
2021/08/24 08:35:09;;;;;;;2.58;2.10;;;24.10;43.60;;;;;;5030517;28;20221;-52
2021/08/24 08:37:35;;;;;;;3.38;2.30;;;24.20;43.50;;;;;;5040473;28;20883;-51
2021/08/24 08:40:02;;;;;;;3.55;2.42;;;24.20;43.50;;;;;;5039032;28;20204;-49
2021/08/24 08:42:28;;;;;;;3.47;2.17;;;24.20;43.40;;;;;;5038433;28;20255;-53
2021/08/24 08:44:55;;;;;;;4.35;2.63;;;24.20;43.60;;;;;;5040325;28;20561;-53
2021/08/24 08:47:21;;;;;;;2.55;2.30;;;24.20;43.90;;;;;;5042814;28;20590;-53
2021/08/24 08:49:48;;;;;;;2.47;2.03;;;24.20;44.00;;;;;;5046418;28;20237;-51
2021/08/24 08:52:14;;;;;;;2.47;2.28;;;24.20;43.90;;;;;;5039863;28;20309;-50
2021/08/24 08:54:41;;;;;;;2.75;2.30;;;24.20;44.20;;;;;;5042292;28;20262;-53
2021/08/24 08:57:07;;;;;;;2.75;2.35;;;24.20;44.30;;;;;;5030347;28;20209;-53
2021/08/24 08:59:34;;;;;;;2.70;2.50;;;24.20;44.20;;;;;;5030260;28;20256;-53
2021/08/24 09:02:00;;;;;;;2.20;2.00;;;24.10;44.20;;;;;;5049165;28;20228;-51
2021/08/24 09:04:26;;;;;;;2.45;2.22;;;24.20;44.30;;;;;;5042641;28;20206;-49
2021/08/24 09:06:53;;;;;;;2.85;2.15;;;24.20;44.10;;;;;;5044767;28;20337;-54
2021/08/24 09:09:19;;;;;;;3.20;2.28;;;24.10;44.00;;;;;;5047625;28;20194;-49
2021/08/24 09:11:46;;;;;;;2.35;2.15;;;24.20;44.00;;;;;;5053208;28;20220;-52
2021/08/24 09:14:12;;;;;;;3.42;2.47;;;24.20;44.00;;;;;;5053878;28;20204;-54
2021/08/24 09:16:39;;;;;;;2.40;2.20;;;24.10;43.70;;;;;;5051656;28;20205;-46
2021/08/24 09:19:05;;;;;;;4.50;2.80;;;24.10;44.00;;;;;;5040900;28;20259;-50
2021/08/24 09:21:33;;;;;;;3.28;2.40;;;24.20;44.20;;;;;;5053478;28;20226;-52
2021/08/24 09:24:00;;;;;;;3.65;2.13;;;24.20;43.60;;;;;;5041683;28;20662;-47
2021/08/24 09:26:26;;;;;;;2.85;2.30;;;24.20;44.00;;;;;;5044305;28;20202;-45
2021/08/24 09:28:54;;;;;;;2.83;2.53;;;24.30;44.50;;;;;;5044132;28;20201;-50
2021/08/24 09:31:21;;;;;;;3.97;2.22;;;24.30;44.50;;;;;;5045337;28;20257;-46
2021/08/24 09:33:47;;;;;;;2.85;2.58;;;24.30;44.00;;;;;;5046753;28;20513;-51
2021/08/24 09:36:14;;;;;;;5.80;2.55;;;24.20;44.20;;;;;;5051740;28;20205;-47
2021/08/24 09:38:40;;;;;;;3.20;2.33;;;24.20;44.40;;;;;;5052599;28;20237;-50
2021/08/24 09:41:06;;;;;;;2.33;2.13;;;24.20;44.50;;;;;;5049106;28;20220;-49
2021/08/24 09:43:33;;;;;;;2.65;2.40;;;24.30;44.40;;;;;;5036293;28;20211;-56
2021/08/24 09:45:59;;;;;;;2.25;1.92;;;24.30;44.30;;;;;;5047297;28;20216;-49
2021/08/24 09:48:26;;;;;;;2.58;2.38;;;24.20;44.30;;;;;;5048317;28;20206;-52
2021/08/24 09:50:53;;;;;;;3.63;2.30;;;24.30;44.20;;;;;;5045282;28;20257;-47
2021/08/24 09:53:20;;;;;;;2.78;2.30;;;24.20;44.00;;;;;;5049153;28;20202;-51
2021/08/24 09:55:46;;;;;;;3.88;2.60;;;24.30;44.10;;;;;;5049270;28;20297;-53
2021/08/24 09:58:13;;;;;;;2.92;2.30;;;24.30;44.30;;;;;;5051818;28;20226;-49
2021/08/24 10:00:39;;;;;;;2.47;2.28;;;24.20;43.90;;;;;;5045291;28;20224;-54
2021/08/24 10:03:06;;;;;;;2.55;2.25;;;24.20;44.00;;;;;;5049003;28;20202;-50
2021/08/24 10:05:32;;;;;;;3.10;2.22;;;24.20;43.90;;;;;;5047405;28;20289;-56
2021/08/24 10:08:01;;;;;;;2.05;1.95;;;24.30;43.80;;;;;;5044794;28;20198;-55
2021/08/24 10:10:27;;;;;;;3.05;2.13;;;24.20;43.80;;;;;;5049016;28;20233;-48
2021/08/24 10:12:54;;;;;;;2.33;1.70;;;24.30;43.90;;;;;;5036880;28;20208;-45
2021/08/24 10:15:20;;;;;;;2.28;1.80;;;24.30;43.70;;;;;;5034387;28;20203;-46
2021/08/24 10:17:47;;;;;;;2.33;2.13;;;24.30;43.80;;;;;;5043350;28;20312;-49
2021/08/24 10:20:13;;;;;;;2.13;1.92;;;24.20;43.70;;;;;;5036925;28;20308;-45
2021/08/24 10:22:40;;;;;;;2.33;2.00;;;24.30;44.40;;;;;;5042218;28;20208;-44
2021/08/24 10:25:06;;;;;;;2.28;2.08;;;24.40;44.70;;;;;;5046864;28;20317;-45
2021/08/24 10:27:33;;;;;;;5.28;2.88;;;24.40;44.60;;;;;;5046434;28;20232;-50
2021/08/24 10:29:59;;;;;;;9.45;5.22;;;24.40;44.70;;;;;;5049324;28;20201;-47
2021/08/24 10:32:26;;;;;;;12.98;7.50;;;24.50;44.90;;;;;;5046503;28;20197;-46
2021/08/24 10:34:52;;;;;;;12.85;7.88;;;24.60;46.50;;;;;;5048307;28;20206;-48
2021/08/24 10:37:18;;;;;;;10.77;7.43;;;24.50;45.70;;;;;;5049587;28;20686;-47
2021/08/24 10:39:45;;;;;;;12.45;6.97;;;24.50;45.60;;;;;;5043985;28;20728;-46
2021/08/24 10:42:11;;;;;;;11.35;6.90;;;24.50;45.80;;;;;;5049735;28;20218;-47
2021/08/24 10:44:38;;;;;;;14.20;8.00;;;24.50;46.00;;;;;;5046967;28;20202;-49
2021/08/24 10:47:04;;;;;;;10.43;6.82;;;24.60;46.00;;;;;;5043422;28;20738;-50
2021/08/24 10:49:31;;;;;;;16.02;7.57;;;24.50;46.00;;;;;;5047485;28;20210;-48
2021/08/24 10:51:57;;;;;;;13.68;7.75;;;24.60;46.10;;;;;;5047538;28;20722;-46
2021/08/24 10:54:24;;;;;;;15.23;8.07;;;24.60;46.10;;;;;;5050000;28;20289;-49
2021/08/24 10:56:50;;;;;;;15.52;7.13;;;24.60;46.40;;;;;;5045034;28;20224;-51
2021/08/24 10:59:17;;;;;;;13.73;6.93;;;24.60;46.20;;;;;;5049357;28;20311;-48
2021/08/24 11:01:43;;;;;;;13.13;7.45;;;24.60;46.30;;;;;;5041016;28;20222;-48
2021/08/24 11:04:09;;;;;;;16.33;7.47;;;24.60;46.90;;;;;;5050557;28;20202;-51
2021/08/24 11:06:36;;;;;;;15.35;6.57;;;24.60;47.20;;;;;;5043394;28;20213;-48
2021/08/24 11:09:02;;;;;;;14.98;7.13;;;24.60;48.20;;;;;;5035519;28;20209;-48
2021/08/24 11:11:29;;;;;;;14.30;6.97;;;24.70;48.30;;;;;;5046317;28;20308;-52
2021/08/24 11:13:55;;;;;;;14.05;7.85;;;24.70;48.90;;;;;;5046427;28;20256;-50
2021/08/24 11:16:22;;;;;;;13.75;6.88;;;24.70;49.30;;;;;;5047127;28;20209;-48
2021/08/24 11:18:48;;;;;;;16.42;7.63;;;24.70;50.10;;;;;;5049464;28;20229;-50
2021/08/24 11:21:14;;;;;;;14.68;7.13;;;24.70;49.80;;;;;;5049146;28;20220;-48
2021/08/24 11:23:41;;;;;;;14.18;7.47;;;24.70;50.30;;;;;;5045577;28;20208;-45
2021/08/24 11:26:07;;;;;;;12.55;6.40;;;24.70;50.60;;;;;;5049508;28;20202;-53
2021/08/24 11:28:34;;;;;;;12.63;6.22;;;24.70;50.60;;;;;;5050045;28;20305;-52
2021/08/24 11:31:00;;;;;;;11.35;6.47;;;24.70;50.60;;;;;;5031403;28;20226;-52
2021/08/24 11:33:27;;;;;;;13.38;6.28;;;24.70;50.50;;;;;;5036099;28;20205;-50
2021/08/24 11:35:53;;;;;;;13.38;6.13;;;24.70;50.70;;;;;;5040356;28;20248;-50
2021/08/24 11:38:20;;;;;;;13.02;5.80;;;24.70;50.60;;;;;;5037352;28;20719;-52
2021/08/24 11:40:46;;;;;;;9.25;5.80;;;24.70;50.20;;;;;;5045832;28;20770;-47
2021/08/24 11:43:13;;;;;;;13.10;6.18;;;24.70;50.40;;;;;;5048461;28;20658;-49
2021/08/24 11:45:39;;;;;;;12.55;5.65;;;24.70;50.30;;;;;;5048658;28;20600;-50
2021/08/24 11:48:06;;;;;;;6.93;3.92;;;24.70;50.10;;;;;;5041857;28;20667;-49
2021/08/24 11:50:32;;;;;;;7.63;4.10;;;24.60;46.80;;;;;;5046950;28;20811;-50
2021/08/24 11:52:59;;;;;;;4.18;3.13;;;24.50;46.00;;;;;;5043474;28;20540;-50
2021/08/24 11:55:25;;;;;;;2.70;2.40;;;24.40;45.10;;;;;;5042756;28;20618;-48
2021/08/24 11:57:52;;;;;;;3.00;2.53;;;24.30;44.20;;;;;;5047050;28;20197;-52
2021/08/24 12:00:18;;;;;;;2.63;2.30;;;24.30;43.20;;;;;;5048239;28;20221;-48
2021/08/24 12:02:45;;;;;;;2.65;2.20;;;24.30;43.20;;;;;;5044868;28;20216;-50
2021/08/24 12:05:11;;;;;;;2.70;2.50;;;24.30;43.20;;;;;;5038823;28;20204;-51
2021/08/24 12:07:38;;;;;;;2.30;2.10;;;24.20;43.20;;;;;;5042761;28;20197;-49
2021/08/24 12:10:04;;;;;;;2.47;2.10;;;24.20;42.40;;;;;;5043809;28;20304;-49
2021/08/24 12:12:31;;;;;;;3.30;2.22;;;24.20;42.00;;;;;;5037370;28;20198;-49
2021/08/24 12:14:57;;;;;;;1.85;1.75;;;24.20;42.10;;;;;;5040411;28;20212;-49
2021/08/24 12:17:24;;;;;;;3.17;2.00;;;24.20;41.90;;;;;;5044750;28;20198;-52
2021/08/24 12:19:50;;;;;;;2.42;2.22;;;24.20;41.80;;;;;;5048051;28;20228;-52
2021/08/24 12:22:17;;;;;;;2.05;1.85;;;24.20;41.60;;;;;;5049825;28;20202;-52
2021/08/24 12:24:43;;;;;;;2.00;1.90;;;24.10;41.40;;;;;;5042321;28;20197;-54
2021/08/24 12:27:10;;;;;;;1.73;1.60;;;24.10;41.50;;;;;;5049488;28;20208;-51
2021/08/24 12:29:36;;;;;;;1.80;1.70;;;24.10;41.20;;;;;;5043513;28;20210;-53
2021/08/24 12:32:03;;;;;;;2.00;1.90;;;24.10;41.10;;;;;;5045678;28;20205;-49
2021/08/24 12:34:29;;;;;;;2.75;1.80;;;24.10;41.30;;;;;;5033641;28;20214;-55
2021/08/24 12:36:56;;;;;;;2.10;1.90;;;24.10;41.00;;;;;;5032320;28;20206;-50
2021/08/24 12:39:23;;;;;;;2.08;1.92;;;24.10;40.90;;;;;;5030299;28;20230;-53
2021/08/24 12:41:50;;;;;;;2.08;1.92;;;24.10;41.00;;;;;;5042264;28;20213;-48